createdAt,value
2022-12-15T00:02:17.081Z,11.55
2022-12-15T00:05:02.315Z,12.15
2022-12-15T00:07:47.726Z,17.10
2022-12-15T00:10:33.052Z,15.07
2022-12-15T00:13:18.495Z,12.00
2022-12-15T00:16:07.527Z,13.45
2022-12-15T00:18:53.371Z,11.80
2022-12-15T00:24:24.991Z,11.88
2022-12-15T00:29:55.864Z,10.50
2022-12-15T00:32:41.710Z,12.20
2022-12-15T00:35:28.042Z,13.27
2022-12-15T00:38:13.572Z,12.00
2022-12-15T00:40:40.333Z,12.00
2022-12-15T00:43:12.319Z,11.90
2022-12-15T00:45:57.720Z,12.38
2022-12-15T00:48:24.456Z,9.98
2022-12-15T00:50:54.016Z,11.98
2022-12-15T00:53:40.858Z,9.40
2022-12-15T00:56:27.421Z,10.85
2022-12-15T00:59:13.023Z,10.07
2022-12-15T01:01:58.474Z,9.80
2022-12-15T01:04:44.080Z,10.82
2022-12-15T01:07:29.273Z,11.65
2022-12-15T01:10:14.545Z,11.20
2022-12-15T01:13:00.465Z,11.20
2022-12-15T01:15:45.870Z,11.90
2022-12-15T01:18:31.679Z,10.38
2022-12-15T01:21:00.368Z,11.13
2022-12-15T01:23:27.946Z,11.57
2022-12-15T01:25:55.454Z,12.55
2022-12-15T01:28:22.710Z,11.77
2022-12-15T01:30:49.881Z,11.93
2022-12-15T01:33:17.506Z,13.07
2022-12-15T01:35:44.342Z,10.70
2022-12-15T01:38:11.596Z,12.82
2022-12-15T01:40:47.396Z,13.20
2022-12-15T01:43:20.250Z,14.05
2022-12-15T01:45:51.188Z,11.65
2022-12-15T01:48:27.776Z,11.07
2022-12-15T01:51:34.376Z,11.20
2022-12-15T01:54:07.596Z,10.43
2022-12-15T01:56:40.324Z,10.25
2022-12-15T01:59:09.826Z,10.00
2022-12-15T02:01:36.941Z,9.20
2022-12-15T02:04:03.840Z,10.95
2022-12-15T02:06:30.795Z,9.85
2022-12-15T02:08:58.906Z,11.77
2022-12-15T02:11:44.701Z,10.63
2022-12-15T02:14:12.828Z,10.93
2022-12-15T02:16:39.641Z,10.68
2022-12-15T02:19:09.062Z,10.95
2022-12-15T02:22:01.897Z,11.68
2022-12-15T02:24:40.745Z,12.90
2022-12-15T02:27:20.587Z,13.80
2022-12-15T02:30:05.125Z,12.68
2022-12-15T02:32:37.870Z,13.27
2022-12-15T02:35:09.827Z,12.85
2022-12-15T02:37:38.315Z,11.38
2022-12-15T02:40:07.789Z,10.38
2022-12-15T02:42:37.244Z,10.43
2022-12-15T02:45:09.770Z,11.38
2022-12-15T02:47:46.376Z,13.43
2022-12-15T02:50:28.978Z,12.88
2022-12-15T02:53:27.795Z,9.88
2022-12-15T02:55:57.651Z,12.55
2022-12-15T02:58:30.001Z,11.77
2022-12-15T03:01:03.922Z,9.68
2022-12-15T03:03:33.450Z,12.77
2022-12-15T03:06:02.390Z,10.88
2022-12-15T03:08:29.918Z,12.38
2022-12-15T03:10:57.430Z,11.93
2022-12-15T03:13:24.960Z,10.50
2022-12-15T03:15:52.734Z,11.07
2022-12-15T03:18:19.349Z,9.80
2022-12-15T03:20:46.101Z,9.50
2022-12-15T03:23:12.860Z,10.95
2022-12-15T03:25:39.658Z,11.75
2022-12-15T03:28:06.401Z,8.57
2022-12-15T03:30:33.178Z,9.88
2022-12-15T03:33:00.054Z,10.13
2022-12-15T03:35:26.764Z,8.57
2022-12-15T03:37:53.459Z,11.32
2022-12-15T03:40:20.139Z,10.15
2022-12-15T03:42:49.429Z,9.93
2022-12-15T03:45:21.811Z,10.95
2022-12-15T03:47:49.841Z,11.13
2022-12-15T03:50:19.517Z,9.15
2022-12-15T03:52:50.616Z,10.77
2022-12-15T03:55:17.355Z,9.73
2022-12-15T03:57:44.026Z,10.30
2022-12-15T04:00:12.130Z,11.85
2022-12-15T04:02:38.958Z,11.63
2022-12-15T04:05:06.085Z,10.57
2022-12-15T04:07:32.821Z,11.32
2022-12-15T04:09:59.463Z,11.98
2022-12-15T04:12:26.315Z,11.93
2022-12-15T04:14:54.130Z,11.85
2022-12-15T04:17:20.831Z,10.23
2022-12-15T04:20:06.404Z,10.13
2022-12-15T04:22:33.098Z,9.88
2022-12-15T04:25:19.663Z,12.55
2022-12-15T04:28:04.795Z,7.68
2022-12-15T04:30:50.620Z,13.27
2022-12-15T04:36:21.711Z,9.32
2022-12-15T04:39:07.010Z,10.05
2022-12-15T04:41:52.206Z,10.98
2022-12-15T04:44:37.650Z,9.23
2022-12-15T04:47:23.215Z,12.18
2022-12-15T04:50:08.310Z,11.32
2022-12-15T04:52:53.549Z,12.07
2022-12-15T04:55:38.730Z,12.82
2022-12-15T04:58:28.068Z,11.68
2022-12-15T05:01:16.378Z,12.60
2022-12-15T05:04:02.191Z,12.68
2022-12-15T05:09:32.774Z,11.75
2022-12-15T05:12:18.121Z,13.23
2022-12-15T05:15:03.452Z,11.90
2022-12-15T05:17:49.310Z,11.55
2022-12-15T05:23:19.979Z,10.50
2022-12-15T05:26:05.269Z,11.10
2022-12-15T05:28:50.493Z,9.65
2022-12-15T05:31:35.899Z,13.73
2022-12-15T05:34:05.559Z,10.07
2022-12-15T05:36:33.476Z,12.30
2022-12-15T05:39:00.141Z,9.15
2022-12-15T05:41:27.092Z,12.25
2022-12-15T05:43:53.728Z,13.32
2022-12-15T05:46:20.483Z,13.80
2022-12-15T05:48:47.401Z,14.20
2022-12-15T05:51:14.601Z,12.35
2022-12-15T05:53:41.806Z,11.27
2022-12-15T05:56:14.058Z,13.32
2022-12-15T05:58:45.389Z,15.32
2022-12-15T06:01:17.286Z,14.48
2022-12-15T06:03:44.656Z,13.77
2022-12-15T06:06:13.215Z,15.00
2022-12-15T06:08:41.236Z,15.07
2022-12-15T06:11:08.323Z,14.13
2022-12-15T06:13:35.467Z,13.45
2022-12-15T06:16:13.970Z,12.93
2022-12-15T06:18:44.513Z,14.52
2022-12-15T06:21:19.250Z,13.95
2022-12-15T06:23:46.441Z,13.75
2022-12-15T06:26:18.981Z,16.90
2022-12-15T06:28:46.656Z,16.15
2022-12-15T06:31:14.672Z,15.25
2022-12-15T06:33:41.480Z,15.63
2022-12-15T06:36:12.892Z,16.25
2022-12-15T06:38:40.307Z,12.88
2022-12-15T06:41:07.659Z,14.50
2022-12-15T06:43:34.683Z,15.35
2022-12-15T06:46:02.921Z,11.60
2022-12-15T06:48:30.371Z,14.35
2022-12-15T06:50:57.383Z,15.57
2022-12-15T06:53:24.679Z,14.73
2022-12-15T06:55:51.745Z,15.88
2022-12-15T06:58:18.465Z,15.55
2022-12-15T07:00:46.691Z,14.43
2022-12-15T07:03:17.100Z,13.07
2022-12-15T07:05:44.744Z,14.85
2022-12-15T07:08:15.719Z,14.50
2022-12-15T07:10:44.302Z,14.23
2022-12-15T07:13:14.269Z,13.88
2022-12-15T07:15:44.678Z,14.15
2022-12-15T07:18:11.394Z,13.85
2022-12-15T07:20:38.346Z,15.18
2022-12-15T07:23:08.177Z,14.93
2022-12-15T07:25:36.314Z,15.25
2022-12-15T07:28:03.688Z,14.70
2022-12-15T07:30:35.104Z,14.98
2022-12-15T07:33:05.788Z,13.88
2022-12-15T07:35:32.900Z,15.68
2022-12-15T07:38:00.455Z,15.60
2022-12-15T07:40:27.214Z,13.77
2022-12-15T07:42:54.019Z,14.68
2022-12-15T07:45:21.969Z,15.48
2022-12-15T07:47:50.546Z,14.52
2022-12-15T07:50:18.873Z,13.45
2022-12-15T07:52:46.374Z,14.88
2022-12-15T07:55:13.259Z,16.08
2022-12-15T07:57:39.900Z,19.20
2022-12-15T08:00:09.297Z,17.17
2022-12-15T08:02:36.139Z,13.88
2022-12-15T08:05:02.875Z,15.73
2022-12-15T08:07:29.535Z,13.70
2022-12-15T08:09:56.240Z,17.15
2022-12-15T08:12:22.907Z,14.65
2022-12-15T08:14:50.765Z,14.32
2022-12-15T08:17:17.605Z,14.20
2022-12-15T08:19:44.313Z,15.07
2022-12-15T08:22:12.316Z,15.70
2022-12-15T08:24:40.706Z,17.25
2022-12-15T08:27:08.364Z,15.20
2022-12-15T08:29:51.935Z,13.93
2022-12-15T08:32:19.383Z,14.15
2022-12-15T08:34:51.498Z,15.05
2022-12-15T08:37:18.394Z,15.40
2022-12-15T08:39:45.139Z,15.18
2022-12-15T08:42:12.070Z,13.93
2022-12-15T08:44:38.797Z,22.38
2022-12-15T08:47:05.681Z,13.52
2022-12-15T08:49:32.326Z,15.45
2022-12-15T08:51:59.028Z,24.90
2022-12-15T08:54:25.706Z,16.10
2022-12-15T08:56:52.469Z,26.20
2022-12-15T08:59:19.508Z,16.50
2022-12-15T09:01:46.428Z,14.50
2022-12-15T09:04:13.429Z,13.80
2022-12-15T09:06:40.222Z,13.55
2022-12-15T09:09:08.984Z,15.93
2022-12-15T09:11:35.768Z,13.30
2022-12-15T09:14:03.518Z,13.82
2022-12-15T09:16:30.467Z,12.55
2022-12-15T09:18:58.949Z,16.33
2022-12-15T09:21:27.880Z,14.68
2022-12-15T09:24:00.522Z,13.02
2022-12-15T09:26:30.234Z,13.48
2022-12-15T09:28:57.648Z,13.95
2022-12-15T09:31:28.599Z,15.32
2022-12-15T09:33:56.988Z,16.30
2022-12-15T09:36:24.411Z,17.20
2022-12-15T09:38:51.296Z,15.93
2022-12-15T09:41:27.540Z,16.08
2022-12-15T09:44:10.893Z,16.17
2022-12-15T09:47:00.028Z,13.45
2022-12-15T09:49:54.315Z,14.85
2022-12-15T09:52:46.544Z,14.10
2022-12-15T09:55:18.959Z,13.60
2022-12-15T09:58:09.141Z,13.07
2022-12-15T10:00:43.577Z,13.38
2022-12-15T10:03:22.046Z,14.77
2022-12-15T10:06:18.312Z,13.70
2022-12-15T10:08:55.257Z,13.50
2022-12-15T10:11:30.788Z,13.98
2022-12-15T10:14:11.507Z,13.40
2022-12-15T10:17:07.546Z,12.18
2022-12-15T10:19:37.548Z,13.20
2022-12-15T10:22:04.332Z,12.43
2022-12-15T10:25:08.003Z,13.65
2022-12-15T10:27:44.399Z,14.75
2022-12-15T10:30:12.963Z,11.77
2022-12-15T10:32:51.681Z,13.63
2022-12-15T10:35:23.122Z,13.35
2022-12-15T10:37:50.243Z,12.43
2022-12-15T10:40:52.273Z,11.05
2022-12-15T10:43:28.050Z,12.10
2022-12-15T10:46:22.093Z,14.32
2022-12-15T10:48:54.604Z,16.48
2022-12-15T10:51:37.226Z,16.95
2022-12-15T10:54:10.061Z,14.50
2022-12-15T10:56:59.450Z,14.73
2022-12-15T10:59:31.973Z,17.98
2022-12-15T11:05:15.997Z,18.08
2022-12-15T11:07:42.596Z,18.45
2022-12-15T11:10:18.665Z,13.68
2022-12-15T11:12:58.713Z,11.57
2022-12-15T11:15:31.510Z,12.48
2022-12-15T11:18:11.406Z,10.98
2022-12-15T11:20:44.920Z,13.20
2022-12-15T11:23:51.703Z,9.73
2022-12-15T11:26:31.079Z,10.98
2022-12-15T11:29:07.008Z,11.18
2022-12-15T11:31:40.864Z,9.75
2022-12-15T11:34:15.534Z,10.43
2022-12-15T11:37:07.009Z,9.77
2022-12-15T11:40:11.413Z,10.73
2022-12-15T11:42:41.080Z,9.30
2022-12-15T11:45:24.751Z,9.48
2022-12-15T11:48:14.006Z,9.75
2022-12-15T11:51:18.644Z,10.18
2022-12-15T11:53:51.327Z,9.68
2022-12-15T11:56:27.040Z,11.05
2022-12-15T11:58:56.822Z,9.90
2022-12-15T12:01:52.584Z,11.02
2022-12-15T12:04:26.063Z,9.13
2022-12-15T12:07:02.048Z,9.52
2022-12-15T12:09:59.187Z,12.55
2022-12-15T12:12:45.123Z,10.35
2022-12-15T12:15:57.079Z,12.75
2022-12-15T12:18:28.351Z,10.95
2022-12-15T12:21:04.369Z,10.52
2022-12-15T12:23:58.644Z,11.40
2022-12-15T12:26:44.012Z,10.13
2022-12-15T12:29:28.350Z,11.25
2022-12-15T12:32:04.039Z,10.93
2022-12-15T12:35:31.523Z,11.13
2022-12-15T12:37:45.625Z,12.30
2022-12-15T12:40:41.720Z,12.52
2022-12-15T12:43:13.498Z,10.95
2022-12-15T12:45:56.338Z,9.73
2022-12-15T12:48:25.932Z,10.20
2022-12-15T12:51:07.574Z,11.27
2022-12-15T12:53:34.974Z,10.55
2022-12-15T12:56:01.940Z,9.77
2022-12-15T12:58:38.903Z,11.45
2022-12-15T13:01:13.118Z,10.57
2022-12-15T13:03:40.675Z,11.15
2022-12-15T15:03:10.417Z,16.55
2022-12-15T16:43:24.262Z,24.90
2022-12-15T16:45:53.452Z,23.17
2022-12-15T16:48:21.145Z,22.38
2022-12-15T16:50:53.136Z,23.10
2022-12-15T16:53:32.471Z,22.30
2022-12-15T16:56:01.792Z,24.88
2022-12-15T16:58:29.370Z,21.90
2022-12-15T17:00:56.302Z,22.58
2022-12-15T17:03:26.035Z,21.95
2022-12-15T17:05:58.338Z,24.85
2022-12-15T17:08:27.428Z,25.08
2022-12-15T17:10:54.330Z,24.42
2022-12-15T17:13:41.912Z,23.55
2022-12-15T17:16:14.364Z,24.40
2022-12-15T17:18:42.784Z,24.88
2022-12-15T17:21:15.560Z,24.00
2022-12-15T17:23:44.611Z,24.35
2022-12-15T17:26:29.196Z,23.60
2022-12-15T17:28:59.588Z,23.73
2022-12-15T17:31:35.326Z,26.08
2022-12-15T17:34:34.831Z,25.50
2022-12-15T17:37:03.431Z,26.95
2022-12-15T17:39:30.796Z,28.13
2022-12-15T17:42:01.055Z,25.67
2022-12-15T17:44:36.706Z,26.27
2022-12-15T17:47:06.423Z,24.02
2022-12-15T17:49:36.597Z,26.52
2022-12-15T17:52:15.690Z,29.10
2022-12-15T17:54:42.433Z,27.48
2022-12-15T17:57:11.597Z,26.40
2022-12-15T17:59:38.227Z,27.92
2022-12-15T18:02:05.076Z,27.83
2022-12-15T18:04:31.971Z,26.27
2022-12-15T18:07:02.081Z,26.77
2022-12-15T18:09:29.822Z,27.33
2022-12-15T18:11:56.661Z,27.63
2022-12-15T18:14:23.612Z,29.15
2022-12-15T18:16:50.793Z,27.23
2022-12-15T18:19:17.392Z,28.52
2022-12-15T18:21:49.660Z,28.52
2022-12-15T18:24:17.507Z,31.45
2022-12-15T18:26:44.443Z,30.77
2022-12-15T18:29:17.990Z,30.08
2022-12-15T18:31:46.637Z,29.40
2022-12-15T18:34:15.062Z,29.50
2022-12-15T18:36:43.104Z,30.45
2022-12-15T18:39:21.216Z,31.60
2022-12-15T18:41:48.610Z,34.03
2022-12-15T18:44:33.432Z,31.77
2022-12-15T18:47:00.242Z,33.93
2022-12-15T18:49:26.903Z,31.30
2022-12-15T18:51:53.520Z,30.98
2022-12-15T18:54:22.508Z,32.28
2022-12-15T18:56:50.024Z,32.75
2022-12-15T18:59:17.813Z,36.50
2022-12-15T19:01:45.980Z,31.58
2022-12-15T19:04:12.859Z,33.22
2022-12-15T19:06:40.540Z,34.22
2022-12-15T19:09:20.365Z,32.03
2022-12-15T19:12:07.275Z,29.20
2022-12-15T19:14:43.438Z,30.50
2022-12-15T19:17:29.628Z,33.30
2022-12-15T19:20:15.259Z,32.80
2022-12-15T19:22:42.490Z,28.52
2022-12-15T19:25:24.791Z,34.90
2022-12-15T19:27:53.146Z,34.88
2022-12-15T19:30:20.314Z,36.03
2022-12-15T19:32:47.090Z,33.45
2022-12-15T19:35:13.964Z,31.90
2022-12-15T19:37:42.415Z,33.78
2022-12-15T19:40:18.084Z,31.70
2022-12-15T19:42:44.747Z,33.78
2022-12-15T19:45:22.751Z,30.73
2022-12-15T19:47:50.017Z,29.17
2022-12-15T19:50:19.074Z,29.25
2022-12-15T19:52:48.406Z,30.42
2022-12-15T19:55:23.918Z,27.15
2022-12-15T19:57:50.669Z,29.27
2022-12-15T20:00:21.980Z,30.13
2022-12-15T20:02:55.112Z,33.00
2022-12-15T20:05:23.502Z,30.95
2022-12-15T20:07:54.911Z,33.35
2022-12-15T20:10:31.892Z,31.92
2022-12-15T20:13:00.743Z,33.90
2022-12-15T20:15:27.881Z,33.67
2022-12-15T20:17:57.912Z,33.97
2022-12-15T20:20:26.897Z,30.40
2022-12-15T20:22:55.837Z,30.88
2022-12-15T20:25:41.508Z,33.17
2022-12-15T20:28:16.078Z,32.45
2022-12-15T20:30:43.620Z,37.42
2022-12-15T20:33:11.880Z,34.72
2022-12-15T20:35:38.892Z,31.45
2022-12-15T20:38:28.429Z,31.77
2022-12-15T20:40:55.690Z,32.53
2022-12-15T20:43:23.021Z,32.08
2022-12-15T20:45:58.116Z,38.20
2022-12-15T20:50:52.960Z,33.20
2022-12-15T20:53:22.509Z,40.85
2022-12-15T20:55:50.224Z,38.65
2022-12-15T20:58:18.419Z,36.58
2022-12-15T21:00:46.113Z,31.95
2022-12-15T21:03:34.111Z,34.90
2022-12-15T21:06:01.032Z,29.95
2022-12-15T21:08:30.385Z,31.45
2022-12-15T21:11:01.792Z,32.17
2022-12-15T21:13:31.444Z,34.80
2022-12-15T21:15:58.419Z,35.47
2022-12-15T21:21:20.983Z,33.30
2022-12-15T21:23:47.910Z,36.72
2022-12-15T21:26:19.148Z,36.30
2022-12-15T21:28:47.532Z,36.78
2022-12-15T21:31:15.512Z,37.58
2022-12-15T21:33:42.534Z,36.38
2022-12-15T21:36:18.508Z,37.83
2022-12-15T21:38:50.902Z,25.50
2022-12-15T21:41:21.007Z,31.85
2022-12-15T21:43:48.250Z,31.27
2022-12-15T21:46:17.385Z,32.90
2022-12-15T21:49:03.139Z,32.80
2022-12-15T21:53:57.467Z,28.25
2022-12-15T21:56:24.158Z,34.13
2022-12-15T21:58:52.755Z,32.45
2022-12-15T22:01:24.480Z,27.20
2022-12-15T22:03:56.317Z,33.63
2022-12-15T22:06:28.958Z,29.25
2022-12-15T22:08:58.722Z,31.23
2022-12-15T22:11:26.749Z,30.48
2022-12-15T22:13:55.149Z,30.00
2022-12-15T22:16:22.661Z,35.90
2022-12-15T22:18:52.081Z,33.97
2022-12-15T22:21:19.050Z,32.38
2022-12-15T22:23:47.979Z,32.17
2022-12-15T22:26:21.465Z,32.83
2022-12-15T22:28:48.778Z,33.95
2022-12-15T22:31:15.874Z,33.78
2022-12-15T22:33:43.094Z,32.72
2022-12-15T22:36:09.767Z,34.08
2022-12-15T22:38:36.663Z,30.92
2022-12-15T22:41:04.521Z,34.20
2022-12-15T22:43:34.144Z,31.00
2022-12-15T22:46:00.947Z,31.48
2022-12-15T22:48:34.443Z,29.90
2022-12-15T22:51:01.755Z,29.83
2022-12-15T22:53:31.833Z,32.40
2022-12-15T22:55:58.940Z,30.88
2022-12-15T22:58:30.501Z,30.70
2022-12-15T23:00:59.172Z,32.40
2022-12-15T23:03:29.414Z,32.97
2022-12-15T23:05:56.946Z,35.10
2022-12-15T23:08:23.550Z,31.60
2022-12-15T23:11:08.452Z,32.80
2022-12-15T23:13:35.489Z,34.45
2022-12-15T23:16:21.800Z,34.65
2022-12-15T23:19:02.518Z,30.65
2022-12-15T23:21:29.412Z,33.65
2022-12-15T23:23:57.619Z,34.47
2022-12-15T23:26:25.966Z,35.03
2022-12-15T23:28:53.711Z,35.33
2022-12-15T23:31:22.170Z,36.97
2022-12-15T23:33:49.949Z,36.78
2022-12-15T23:36:19.211Z,41.15
2022-12-15T23:38:46.605Z,35.25
2022-12-15T23:41:18.086Z,35.00
2022-12-15T23:43:44.836Z,30.88
2022-12-15T23:46:12.008Z,33.30
2022-12-15T23:48:40.998Z,34.00
2022-12-15T23:51:13.734Z,33.90
2022-12-15T23:53:40.903Z,31.25
2022-12-15T23:56:13.468Z,35.15
2022-12-15T23:58:41.446Z,35.33
